sensor_id;sensor_type;location;lat;lon;timestamp;P1;durP1;ratioP1;P2;durP2;ratioP2
3309;SDS011;1667;53.238;10.394;2023-04-01T00:01:56;2.50;;;1.40;;
3309;SDS011;1667;53.238;10.394;2023-04-01T00:06:54;3.30;;;2.00;;
3309;SDS011;1667;53.238;10.394;2023-04-01T00:11:53;2.87;;;2.30;;
3309;SDS011;1667;53.238;10.394;2023-04-01T00:16:51;1.60;;;1.50;;
3309;SDS011;1667;53.238;10.394;2023-04-01T00:21:51;2.23;;;2.00;;
3309;SDS011;1667;53.238;10.394;2023-04-01T00:26:50;6.70;;;2.30;;
3309;SDS011;1667;53.238;10.394;2023-04-01T00:31:48;7.20;;;1.67;;
3309;SDS011;1667;53.238;10.394;2023-04-01T00:36:47;5.50;;;2.40;;
3309;SDS011;1667;53.238;10.394;2023-04-01T00:41:48;3.07;;;1.80;;
3309;SDS011;1667;53.238;10.394;2023-04-01T00:46:46;1.73;;;1.27;;
3309;SDS011;1667;53.238;10.394;2023-04-01T00:51:45;1.90;;;1.63;;
3309;SDS011;1667;53.238;10.394;2023-04-01T00:56:48;3.37;;;2.00;;
3309;SDS011;1667;53.238;10.394;2023-04-01T01:01:52;3.83;;;1.50;;
3309;SDS011;1667;53.238;10.394;2023-04-01T01:06:53;1.87;;;1.60;;
3309;SDS011;1667;53.238;10.394;2023-04-01T01:12:02;2.47;;;1.93;;
3309;SDS011;1667;53.238;10.394;2023-04-01T01:17:07;5.50;;;3.20;;
3309;SDS011;1667;53.238;10.394;2023-04-01T01:22:15;2.93;;;2.23;;
3309;SDS011;1667;53.238;10.394;2023-04-01T01:27:23;3.10;;;2.43;;
3309;SDS011;1667;53.238;10.394;2023-04-01T01:32:33;4.87;;;1.90;;
3309;SDS011;1667;53.238;10.394;2023-04-01T01:37:49;6.03;;;2.50;;
3309;SDS011;1667;53.238;10.394;2023-04-01T01:42:53;5.40;;;2.20;;
3309;SDS011;1667;53.238;10.394;2023-04-01T01:47:56;2.43;;;2.23;;
3309;SDS011;1667;53.238;10.394;2023-04-01T01:53:02;3.53;;;2.40;;
3309;SDS011;1667;53.238;10.394;2023-04-01T01:58:02;1.87;;;1.50;;
3309;SDS011;1667;53.238;10.394;2023-04-01T02:03:08;3.07;;;1.90;;
3309;SDS011;1667;53.238;10.394;2023-04-01T02:08:10;2.80;;;2.60;;
3309;SDS011;1667;53.238;10.394;2023-04-01T02:13:15;6.03;;;2.03;;
3309;SDS011;1667;53.238;10.394;2023-04-01T02:18:17;2.00;;;1.80;;
3309;SDS011;1667;53.238;10.394;2023-04-01T02:23:19;1.97;;;1.77;;
3309;SDS011;1667;53.238;10.394;2023-04-01T02:28:19;1.80;;;1.70;;
3309;SDS011;1667;53.238;10.394;2023-04-01T02:33:18;6.40;;;1.90;;
3309;SDS011;1667;53.238;10.394;2023-04-01T02:38:20;2.77;;;1.87;;
3309;SDS011;1667;53.238;10.394;2023-04-01T02:43:19;2.40;;;1.87;;
3309;SDS011;1667;53.238;10.394;2023-04-01T02:48:18;3.10;;;1.80;;
3309;SDS011;1667;53.238;10.394;2023-04-01T02:53:17;3.63;;;1.77;;
3309;SDS011;1667;53.238;10.394;2023-04-01T02:58:17;2.73;;;1.40;;
3309;SDS011;1667;53.238;10.394;2023-04-01T03:03:16;6.00;;;1.63;;
3309;SDS011;1667;53.238;10.394;2023-04-01T03:08:14;4.70;;;1.93;;
3309;SDS011;1667;53.238;10.394;2023-04-01T03:13:13;2.30;;;1.63;;
3309;SDS011;1667;53.238;10.394;2023-04-01T03:18:13;2.07;;;1.87;;
3309;SDS011;1667;53.238;10.394;2023-04-01T03:23:12;7.23;;;2.30;;
3309;SDS011;1667;53.238;10.394;2023-04-01T03:28:13;2.33;;;1.60;;
3309;SDS011;1667;53.238;10.394;2023-04-01T03:33:13;1.47;;;1.30;;
3309;SDS011;1667;53.238;10.394;2023-04-01T03:38:12;3.57;;;2.03;;
3309;SDS011;1667;53.238;10.394;2023-04-01T03:43:11;3.40;;;2.00;;
3309;SDS011;1667;53.238;10.394;2023-04-01T03:48:09;2.27;;;1.70;;
3309;SDS011;1667;53.238;10.394;2023-04-01T03:53:09;3.80;;;1.90;;
3309;SDS011;1667;53.238;10.394;2023-04-01T03:58:11;2.70;;;2.27;;
3309;SDS011;1667;53.238;10.394;2023-04-01T04:03:10;1.50;;;1.40;;
3309;SDS011;1667;53.238;10.394;2023-04-01T04:08:10;3.87;;;1.67;;
3309;SDS011;1667;53.238;10.394;2023-04-01T04:13:09;2.90;;;1.80;;
3309;SDS011;1667;53.238;10.394;2023-04-01T04:18:15;4.17;;;1.93;;
3309;SDS011;1667;53.238;10.394;2023-04-01T04:23:16;1.43;;;1.33;;
3309;SDS011;1667;53.238;10.394;2023-04-01T04:28:14;4.50;;;1.70;;
3309;SDS011;1667;53.238;10.394;2023-04-01T04:33:13;4.50;;;2.53;;
3309;SDS011;1667;53.238;10.394;2023-04-01T04:38:12;2.27;;;1.73;;
3309;SDS011;1667;53.238;10.394;2023-04-01T04:43:13;3.30;;;1.90;;
3309;SDS011;1667;53.238;10.394;2023-04-01T04:48:15;4.40;;;1.90;;
3309;SDS011;1667;53.238;10.394;2023-04-01T04:53:15;3.50;;;1.80;;
3309;SDS011;1667;53.238;10.394;2023-04-01T04:58:17;2.27;;;2.00;;
3309;SDS011;1667;53.238;10.394;2023-04-01T05:03:16;5.83;;;2.30;;
3309;SDS011;1667;53.238;10.394;2023-04-01T05:08:15;4.53;;;2.37;;
3309;SDS011;1667;53.238;10.394;2023-04-01T05:13:14;1.83;;;1.73;;
3309;SDS011;1667;53.238;10.394;2023-04-01T05:18:17;1.87;;;1.30;;
3309;SDS011;1667;53.238;10.394;2023-04-01T05:23:15;3.77;;;2.30;;
3309;SDS011;1667;53.238;10.394;2023-04-01T05:28:15;5.13;;;2.40;;
3309;SDS011;1667;53.238;10.394;2023-04-01T05:33:17;2.50;;;1.77;;
3309;SDS011;1667;53.238;10.394;2023-04-01T05:38:16;2.40;;;2.20;;
3309;SDS011;1667;53.238;10.394;2023-04-01T05:43:14;8.00;;;2.80;;
3309;SDS011;1667;53.238;10.394;2023-04-01T05:48:18;3.47;;;2.00;;
3309;SDS011;1667;53.238;10.394;2023-04-01T05:53:17;4.50;;;2.27;;
3309;SDS011;1667;53.238;10.394;2023-04-01T05:58:16;2.00;;;1.73;;
3309;SDS011;1667;53.238;10.394;2023-04-01T06:03:17;6.13;;;1.90;;
3309;SDS011;1667;53.238;10.394;2023-04-01T06:08:16;5.83;;;2.50;;
3309;SDS011;1667;53.238;10.394;2023-04-01T06:13:18;5.43;;;2.77;;
3309;SDS011;1667;53.238;10.394;2023-04-01T06:24:06;4.70;;;2.20;;
3309;SDS011;1667;53.238;10.394;2023-04-01T06:29:24;4.53;;;2.90;;
3309;SDS011;1667;53.238;10.394;2023-04-01T06:34:56;3.70;;;2.90;;
3309;SDS011;1667;53.238;10.394;2023-04-01T06:40:21;4.57;;;2.53;;
3309;SDS011;1667;53.238;10.394;2023-04-01T06:45:37;7.60;;;4.20;;
3309;SDS011;1667;53.238;10.394;2023-04-01T06:51:16;5.90;;;3.70;;
3309;SDS011;1667;53.238;10.394;2023-04-01T06:56:42;5.17;;;3.60;;
3309;SDS011;1667;53.238;10.394;2023-04-01T07:01:51;1.63;;;1.53;;
3309;SDS011;1667;53.238;10.394;2023-04-01T07:06:54;1.17;;;1.17;;
3309;SDS011;1667;53.238;10.394;2023-04-01T07:11:56;0.93;;;0.90;;
3309;SDS011;1667;53.238;10.394;2023-04-01T07:17:30;0.90;;;0.90;;
3309;SDS011;1667;53.238;10.394;2023-04-01T07:22:36;1.03;;;0.93;;
3309;SDS011;1667;53.238;10.394;2023-04-01T07:27:48;1.03;;;0.90;;
3309;SDS011;1667;53.238;10.394;2023-04-01T07:32:50;0.80;;;0.80;;
3309;SDS011;1667;53.238;10.394;2023-04-01T07:38:01;0.70;;;0.70;;
3309;SDS011;1667;53.238;10.394;2023-04-01T07:50:08;0.70;;;0.70;;
3309;SDS011;1667;53.238;10.394;2023-04-01T07:55:14;1.53;;;0.90;;
3309;SDS011;1667;53.238;10.394;2023-04-01T08:00:19;0.70;;;0.70;;
3309;SDS011;1667;53.238;10.394;2023-04-01T08:05:32;0.80;;;0.80;;
3309;SDS011;1667;53.238;10.394;2023-04-01T08:10:46;0.70;;;0.70;;
3309;SDS011;1667;53.238;10.394;2023-04-01T08:16:09;0.90;;;0.70;;
3309;SDS011;1667;53.238;10.394;2023-04-01T08:21:20;0.70;;;0.70;;
3309;SDS011;1667;53.238;10.394;2023-04-01T08:26:26;0.67;;;0.67;;
3309;SDS011;1667;53.238;10.394;2023-04-01T08:31:33;0.80;;;0.80;;
3309;SDS011;1667;53.238;10.394;2023-04-01T08:36:36;0.70;;;0.70;;
3309;SDS011;1667;53.238;10.394;2023-04-01T08:47:20;1.00;;;0.70;;
3309;SDS011;1667;53.238;10.394;2023-04-01T08:52:32;0.70;;;0.70;;
3309;SDS011;1667;53.238;10.394;2023-04-01T08:57:40;1.00;;;1.00;;
3309;SDS011;1667;53.238;10.394;2023-04-01T09:03:11;0.70;;;0.70;;
3309;SDS011;1667;53.238;10.394;2023-04-01T09:08:38;0.70;;;0.70;;
3309;SDS011;1667;53.238;10.394;2023-04-01T09:14:06;0.70;;;0.70;;
3309;SDS011;1667;53.238;10.394;2023-04-01T09:19:19;0.70;;;0.63;;
3309;SDS011;1667;53.238;10.394;2023-04-01T09:24:58;0.60;;;0.60;;
3309;SDS011;1667;53.238;10.394;2023-04-01T09:35:45;0.80;;;0.80;;
3309;SDS011;1667;53.238;10.394;2023-04-01T09:40:47;0.90;;;0.90;;
3309;SDS011;1667;53.238;10.394;2023-04-01T09:51:26;0.83;;;0.83;;
3309;SDS011;1667;53.238;10.394;2023-04-01T10:02:38;0.80;;;0.80;;
3309;SDS011;1667;53.238;10.394;2023-04-01T10:08:12;1.20;;;1.10;;
3309;SDS011;1667;53.238;10.394;2023-04-01T10:19:12;1.13;;;1.10;;
3309;SDS011;1667;53.238;10.394;2023-04-01T10:36:14;1.10;;;1.00;;
3309;SDS011;1667;53.238;10.394;2023-04-01T10:41:37;1.40;;;1.30;;
3309;SDS011;1667;53.238;10.394;2023-04-01T10:47:22;0.80;;;0.80;;
3309;SDS011;1667;53.238;10.394;2023-04-01T10:59:09;1.00;;;1.00;;
3309;SDS011;1667;53.238;10.394;2023-04-01T11:10:33;0.90;;;0.90;;
3309;SDS011;1667;53.238;10.394;2023-04-01T11:27:28;1.53;;;0.80;;
3309;SDS011;1667;53.238;10.394;2023-04-01T11:32:50;0.60;;;0.60;;
3309;SDS011;1667;53.238;10.394;2023-04-01T11:37:54;1.27;;;0.87;;
3309;SDS011;1667;53.238;10.394;2023-04-01T11:43:19;2.00;;;0.90;;
3309;SDS011;1667;53.238;10.394;2023-04-01T11:48:51;1.20;;;0.90;;
3309;SDS011;1667;53.238;10.394;2023-04-01T11:54:06;0.80;;;0.80;;
3309;SDS011;1667;53.238;10.394;2023-04-01T12:06:18;0.70;;;0.70;;
3309;SDS011;1667;53.238;10.394;2023-04-01T12:11:25;1.23;;;0.90;;
3309;SDS011;1667;53.238;10.394;2023-04-01T12:16:40;1.80;;;0.80;;
3309;SDS011;1667;53.238;10.394;2023-04-01T12:21:52;0.80;;;0.80;;
3309;SDS011;1667;53.238;10.394;2023-04-01T12:27:15;1.13;;;1.03;;
3309;SDS011;1667;53.238;10.394;2023-04-01T12:32:27;1.00;;;1.00;;
3309;SDS011;1667;53.238;10.394;2023-04-01T12:37:36;1.53;;;1.20;;
3309;SDS011;1667;53.238;10.394;2023-04-01T12:42:51;1.47;;;1.37;;
3309;SDS011;1667;53.238;10.394;2023-04-01T12:48:01;1.30;;;1.20;;
3309;SDS011;1667;53.238;10.394;2023-04-01T12:53:25;2.40;;;1.93;;
3309;SDS011;1667;53.238;10.394;2023-04-01T12:58:52;1.70;;;1.60;;
3309;SDS011;1667;53.238;10.394;2023-04-01T13:09:37;3.90;;;1.50;;
3309;SDS011;1667;53.238;10.394;2023-04-01T13:14:54;3.33;;;1.70;;
3309;SDS011;1667;53.238;10.394;2023-04-01T13:20:28;1.80;;;1.70;;
3309;SDS011;1667;53.238;10.394;2023-04-01T13:25:38;2.30;;;2.00;;
3309;SDS011;1667;53.238;10.394;2023-04-01T13:30:43;3.70;;;1.77;;
3309;SDS011;1667;53.238;10.394;2023-04-01T13:35:48;2.60;;;2.40;;
3309;SDS011;1667;53.238;10.394;2023-04-01T13:40:57;3.30;;;2.07;;
3309;SDS011;1667;53.238;10.394;2023-04-01T13:46:08;1.90;;;1.73;;
3309;SDS011;1667;53.238;10.394;2023-04-01T13:51:30;1.87;;;1.77;;
3309;SDS011;1667;53.238;10.394;2023-04-01T13:56:57;1.77;;;1.67;;
3309;SDS011;1667;53.238;10.394;2023-04-01T14:02:14;3.43;;;2.20;;
3309;SDS011;1667;53.238;10.394;2023-04-01T14:07:32;3.60;;;2.57;;
3309;SDS011;1667;53.238;10.394;2023-04-01T14:12:48;2.30;;;2.03;;
3309;SDS011;1667;53.238;10.394;2023-04-01T14:17:58;2.00;;;1.87;;
3309;SDS011;1667;53.238;10.394;2023-04-01T14:23:17;2.50;;;2.30;;
3309;SDS011;1667;53.238;10.394;2023-04-01T14:28:31;2.63;;;2.07;;
3309;SDS011;1667;53.238;10.394;2023-04-01T14:33:41;2.40;;;2.13;;
3309;SDS011;1667;53.238;10.394;2023-04-01T14:38:47;2.87;;;2.00;;
3309;SDS011;1667;53.238;10.394;2023-04-01T14:49:17;3.70;;;2.00;;
3309;SDS011;1667;53.238;10.394;2023-04-01T14:54:21;3.17;;;1.93;;
3309;SDS011;1667;53.238;10.394;2023-04-01T14:59:32;3.00;;;2.37;;
3309;SDS011;1667;53.238;10.394;2023-04-01T15:04:36;1.90;;;1.70;;
3309;SDS011;1667;53.238;10.394;2023-04-01T15:09:42;1.90;;;1.80;;
3309;SDS011;1667;53.238;10.394;2023-04-01T15:14:51;3.27;;;2.43;;
3309;SDS011;1667;53.238;10.394;2023-04-01T15:20:18;5.40;;;2.77;;
3309;SDS011;1667;53.238;10.394;2023-04-01T15:25:30;2.97;;;2.70;;
3309;SDS011;1667;53.238;10.394;2023-04-01T15:30:44;3.43;;;2.30;;
3309;SDS011;1667;53.238;10.394;2023-04-01T15:35:52;4.33;;;2.27;;
3309;SDS011;1667;53.238;10.394;2023-04-01T15:41:02;5.43;;;3.13;;
3309;SDS011;1667;53.238;10.394;2023-04-01T15:46:24;2.63;;;2.43;;
3309;SDS011;1667;53.238;10.394;2023-04-01T15:57:04;5.80;;;3.20;;
3309;SDS011;1667;53.238;10.394;2023-04-01T16:02:16;4.27;;;2.83;;
3309;SDS011;1667;53.238;10.394;2023-04-01T16:07:27;8.30;;;3.40;;
3309;SDS011;1667;53.238;10.394;2023-04-01T16:12:47;4.47;;;3.60;;
3309;SDS011;1667;53.238;10.394;2023-04-01T16:18:04;5.30;;;3.07;;
3309;SDS011;1667;53.238;10.394;2023-04-01T16:23:22;5.00;;;4.00;;
3309;SDS011;1667;53.238;10.394;2023-04-01T16:28:28;9.97;;;4.50;;
3309;SDS011;1667;53.238;10.394;2023-04-01T16:33:34;6.90;;;4.70;;
3309;SDS011;1667;53.238;10.394;2023-04-01T16:38:38;7.23;;;4.40;;
3309;SDS011;1667;53.238;10.394;2023-04-01T16:43:41;5.37;;;4.10;;
3309;SDS011;1667;53.238;10.394;2023-04-01T16:48:49;7.33;;;4.73;;
3309;SDS011;1667;53.238;10.394;2023-04-01T16:54:01;4.37;;;3.70;;
3309;SDS011;1667;53.238;10.394;2023-04-01T16:59:06;6.90;;;5.10;;
3309;SDS011;1667;53.238;10.394;2023-04-01T17:04:16;3.70;;;3.27;;
3309;SDS011;1667;53.238;10.394;2023-04-01T17:09:24;4.83;;;3.80;;
3309;SDS011;1667;53.238;10.394;2023-04-01T17:14:32;5.60;;;3.77;;
3309;SDS011;1667;53.238;10.394;2023-04-01T17:25:19;4.77;;;4.20;;
3309;SDS011;1667;53.238;10.394;2023-04-01T17:30:30;4.57;;;3.43;;
3309;SDS011;1667;53.238;10.394;2023-04-01T17:35:35;5.40;;;4.03;;
3309;SDS011;1667;53.238;10.394;2023-04-01T17:40:39;5.90;;;3.10;;
3309;SDS011;1667;53.238;10.394;2023-04-01T17:45:49;7.80;;;3.63;;
3309;SDS011;1667;53.238;10.394;2023-04-01T17:50:57;6.20;;;3.97;;
3309;SDS011;1667;53.238;10.394;2023-04-01T17:56:24;7.20;;;3.77;;
3309;SDS011;1667;53.238;10.394;2023-04-01T18:01:41;6.07;;;4.30;;
3309;SDS011;1667;53.238;10.394;2023-04-01T18:06:53;5.93;;;4.50;;
3309;SDS011;1667;53.238;10.394;2023-04-01T18:12:09;6.20;;;4.70;;
3309;SDS011;1667;53.238;10.394;2023-04-01T18:17:23;8.67;;;3.60;;
3309;SDS011;1667;53.238;10.394;2023-04-01T18:22:26;14.73;;;5.00;;
3309;SDS011;1667;53.238;10.394;2023-04-01T18:27:31;8.73;;;5.43;;
3309;SDS011;1667;53.238;10.394;2023-04-01T18:32:36;12.63;;;5.63;;
3309;SDS011;1667;53.238;10.394;2023-04-01T18:37:44;10.40;;;7.07;;
3309;SDS011;1667;53.238;10.394;2023-04-01T18:42:52;10.90;;;6.20;;
3309;SDS011;1667;53.238;10.394;2023-04-01T18:48:01;6.80;;;5.30;;
3309;SDS011;1667;53.238;10.394;2023-04-01T18:53:12;8.77;;;5.87;;
3309;SDS011;1667;53.238;10.394;2023-04-01T18:58:22;5.77;;;5.20;;
3309;SDS011;1667;53.238;10.394;2023-04-01T19:03:25;3.77;;;3.37;;
3309;SDS011;1667;53.238;10.394;2023-04-01T19:08:32;5.03;;;3.43;;
3309;SDS011;1667;53.238;10.394;2023-04-01T19:13:34;7.07;;;4.30;;
3309;SDS011;1667;53.238;10.394;2023-04-01T19:18:42;6.13;;;4.13;;
3309;SDS011;1667;53.238;10.394;2023-04-01T19:29:35;8.07;;;3.23;;
3309;SDS011;1667;53.238;10.394;2023-04-01T19:34:47;8.30;;;3.90;;
3309;SDS011;1667;53.238;10.394;2023-04-01T19:39:57;6.47;;;3.27;;
3309;SDS011;1667;53.238;10.394;2023-04-01T19:45:17;9.33;;;4.17;;
3309;SDS011;1667;53.238;10.394;2023-04-01T19:50:26;4.30;;;3.90;;
3309;SDS011;1667;53.238;10.394;2023-04-01T19:55:35;3.63;;;2.83;;
3309;SDS011;1667;53.238;10.394;2023-04-01T20:00:40;7.57;;;4.13;;
3309;SDS011;1667;53.238;10.394;2023-04-01T20:05:49;9.20;;;3.67;;
3309;SDS011;1667;53.238;10.394;2023-04-01T20:10:57;7.07;;;4.50;;
3309;SDS011;1667;53.238;10.394;2023-04-01T20:16:04;4.30;;;2.97;;
3309;SDS011;1667;53.238;10.394;2023-04-01T20:21:06;6.90;;;3.10;;
3309;SDS011;1667;53.238;10.394;2023-04-01T20:26:21;4.10;;;3.33;;
3309;SDS011;1667;53.238;10.394;2023-04-01T20:31:26;5.83;;;4.20;;
3309;SDS011;1667;53.238;10.394;2023-04-01T20:36:30;11.63;;;3.20;;
3309;SDS011;1667;53.238;10.394;2023-04-01T20:41:40;6.30;;;2.90;;
3309;SDS011;1667;53.238;10.394;2023-04-01T20:46:48;6.80;;;3.30;;
3309;SDS011;1667;53.238;10.394;2023-04-01T20:51:53;6.43;;;3.47;;
3309;SDS011;1667;53.238;10.394;2023-04-01T20:56:59;4.37;;;2.97;;
3309;SDS011;1667;53.238;10.394;2023-04-01T21:02:06;8.07;;;3.23;;
3309;SDS011;1667;53.238;10.394;2023-04-01T21:07:16;7.50;;;3.20;;
3309;SDS011;1667;53.238;10.394;2023-04-01T21:12:24;2.97;;;2.10;;
3309;SDS011;1667;53.238;10.394;2023-04-01T21:17:37;6.67;;;3.00;;
3309;SDS011;1667;53.238;10.394;2023-04-01T21:22:51;6.17;;;2.60;;
3309;SDS011;1667;53.238;10.394;2023-04-01T21:28:10;3.80;;;2.63;;
3309;SDS011;1667;53.238;10.394;2023-04-01T21:33:24;4.43;;;2.20;;
3309;SDS011;1667;53.238;10.394;2023-04-01T21:38:36;3.10;;;1.57;;
3309;SDS011;1667;53.238;10.394;2023-04-01T21:43:52;6.33;;;1.60;;
3309;SDS011;1667;53.238;10.394;2023-04-01T21:49:08;5.33;;;2.10;;
3309;SDS011;1667;53.238;10.394;2023-04-01T21:54:22;3.10;;;1.40;;
3309;SDS011;1667;53.238;10.394;2023-04-01T22:05:15;1.40;;;1.20;;
3309;SDS011;1667;53.238;10.394;2023-04-01T22:10:21;6.77;;;1.47;;
3309;SDS011;1667;53.238;10.394;2023-04-01T22:15:32;4.67;;;1.30;;
3309;SDS011;1667;53.238;10.394;2023-04-01T22:20:47;3.73;;;1.40;;
3309;SDS011;1667;53.238;10.394;2023-04-01T22:25:55;3.23;;;1.70;;
3309;SDS011;1667;53.238;10.394;2023-04-01T22:31:02;2.10;;;1.03;;
3309;SDS011;1667;53.238;10.394;2023-04-01T22:36:05;2.43;;;1.53;;
3309;SDS011;1667;53.238;10.394;2023-04-01T22:41:13;3.17;;;2.17;;
3309;SDS011;1667;53.238;10.394;2023-04-01T22:46:33;2.20;;;1.10;;
3309;SDS011;1667;53.238;10.394;2023-04-01T22:51:41;2.87;;;1.43;;
3309;SDS011;1667;53.238;10.394;2023-04-01T22:56:44;2.30;;;1.60;;
3309;SDS011;1667;53.238;10.394;2023-04-01T23:01:50;5.43;;;1.70;;
3309;SDS011;1667;53.238;10.394;2023-04-01T23:06:53;3.70;;;1.20;;
3309;SDS011;1667;53.238;10.394;2023-04-01T23:11:56;2.20;;;1.57;;
3309;SDS011;1667;53.238;10.394;2023-04-01T23:17:01;3.70;;;1.40;;
3309;SDS011;1667;53.238;10.394;2023-04-01T23:22:08;2.47;;;1.60;;
3309;SDS011;1667;53.238;10.394;2023-04-01T23:27:15;7.60;;;1.57;;
3309;SDS011;1667;53.238;10.394;2023-04-01T23:32:21;2.83;;;1.40;;
3309;SDS011;1667;53.238;10.394;2023-04-01T23:37:23;6.30;;;1.47;;
3309;SDS011;1667;53.238;10.394;2023-04-01T23:42:22;2.40;;;1.60;;
3309;SDS011;1667;53.238;10.394;2023-04-01T23:47:26;1.87;;;1.67;;
3309;SDS011;1667;53.238;10.394;2023-04-01T23:52:29;10.37;;;2.10;;
3309;SDS011;1667;53.238;10.394;2023-04-01T23:57:33;4.73;;;1.53;;
